createdAt,value
2018-11-25T00:01:42.815Z,11.43
2018-11-25T00:04:11.356Z,13.70
2018-11-25T00:06:40.704Z,11.33
2018-11-25T00:09:09.309Z,11.87
2018-11-25T00:11:39.207Z,10.37
2018-11-25T00:14:07.991Z,14.63
2018-11-25T00:16:36.191Z,9.93
2018-11-25T00:19:05.520Z,10.17
2018-11-25T00:21:33.854Z,11.20
2018-11-25T00:24:03.149Z,12.03
2018-11-25T00:26:31.440Z,13.13
2018-11-25T00:28:59.640Z,12.83
2018-11-25T00:31:27.784Z,12.27
2018-11-25T00:33:55.941Z,13.67
2018-11-25T00:36:24.216Z,10.83
2018-11-25T00:38:52.676Z,12.67
2018-11-25T00:41:20.870Z,10.63
2018-11-25T00:43:49.340Z,11.57
2018-11-25T00:46:17.829Z,12.13
2018-11-25T00:48:47.011Z,13.93
2018-11-25T00:51:15.323Z,11.13
2018-11-25T00:53:43.715Z,11.33
2018-11-25T00:56:12.543Z,12.07
2018-11-25T00:58:40.984Z,12.87
2018-11-25T01:01:09.523Z,11.67
2018-11-25T01:03:38.036Z,13.00
2018-11-25T01:06:07.085Z,12.37
2018-11-25T01:08:35.491Z,12.00
2018-11-25T01:11:03.730Z,14.47
2018-11-25T01:13:31.961Z,13.37
2018-11-25T01:16:00.216Z,16.30
2018-11-25T01:18:28.452Z,12.77
2018-11-25T01:20:56.860Z,13.37
2018-11-25T01:23:25.236Z,14.63
2018-11-25T01:25:53.580Z,12.87
2018-11-25T01:28:21.893Z,11.37
2018-11-25T01:30:50.107Z,21.73
2018-11-25T01:33:18.416Z,13.70
2018-11-25T01:35:46.643Z,14.37
2018-11-25T01:38:15.001Z,12.83
2018-11-25T01:40:43.409Z,12.87
2018-11-25T01:43:11.719Z,15.43
2018-11-25T01:45:40.033Z,11.20
2018-11-25T01:48:08.335Z,10.57
2018-11-25T01:50:36.496Z,12.00
2018-11-25T01:53:04.691Z,14.10
2018-11-25T01:55:34.492Z,12.94
2018-11-25T01:58:02.793Z,10.17
2018-11-25T02:00:31.195Z,11.83
2018-11-25T02:02:59.527Z,9.93
2018-11-25T02:05:27.899Z,10.20
2018-11-25T02:07:56.108Z,9.97
2018-11-25T02:10:25.061Z,10.48
2018-11-25T02:12:53.216Z,12.90
2018-11-25T02:15:21.470Z,15.30
2018-11-25T02:22:48.695Z,14.10
2018-11-25T02:25:16.995Z,11.20
2018-11-25T02:27:45.402Z,11.93
2018-11-25T02:30:14.954Z,12.93
2018-11-25T02:32:43.255Z,9.97
2018-11-25T02:35:12.144Z,11.70
2018-11-25T02:37:40.431Z,11.47
2018-11-25T02:40:16.536Z,9.33
2018-11-25T02:42:44.874Z,9.33
2018-11-25T02:45:14.150Z,11.73
2018-11-25T02:47:42.501Z,10.93
2018-11-25T02:50:32.273Z,10.30
2018-11-25T02:53:02.719Z,9.93
2018-11-25T02:55:31.080Z,8.87
2018-11-25T02:58:00.786Z,9.87
2018-11-25T03:00:27.587Z,10.17
2018-11-25T03:02:55.745Z,9.93
2018-11-25T03:05:23.867Z,8.10
2018-11-25T03:07:52.025Z,10.20
2018-11-25T03:10:20.243Z,11.27
2018-11-25T03:12:48.471Z,9.37
2018-11-25T03:15:17.419Z,8.53
2018-11-25T03:17:45.573Z,11.23
2018-11-25T03:20:14.674Z,9.60
2018-11-25T03:22:43.043Z,7.23
2018-11-25T03:25:16.465Z,14.63
2018-11-25T03:27:44.767Z,9.00
2018-11-25T03:30:15.992Z,7.37
2018-11-25T03:32:45.267Z,11.40
2018-11-25T03:35:13.881Z,9.63
2018-11-25T03:37:42.064Z,8.57
2018-11-25T03:40:11.358Z,8.57
2018-11-25T03:42:39.696Z,8.60
2018-11-25T03:45:11.317Z,7.23
2018-11-25T03:47:39.502Z,8.43
2018-11-25T03:50:08.598Z,8.53
2018-11-25T03:52:36.836Z,10.73
2018-11-25T03:55:07.945Z,9.17
2018-11-25T03:57:36.466Z,8.83
2018-11-25T04:00:06.893Z,8.70
2018-11-25T04:02:35.069Z,12.80
2018-11-25T04:05:03.350Z,10.70
2018-11-25T04:07:31.559Z,10.13
2018-11-25T04:09:59.867Z,8.30
2018-11-25T04:12:27.971Z,8.80
2018-11-25T04:14:56.071Z,9.23
2018-11-25T04:17:24.171Z,7.73
2018-11-25T04:19:52.277Z,8.73
2018-11-25T04:22:20.599Z,9.10
2018-11-25T04:24:48.785Z,9.33
2018-11-25T04:27:16.888Z,8.30
2018-11-25T04:29:44.988Z,7.93
2018-11-25T04:32:13.100Z,7.50
2018-11-25T04:34:41.192Z,9.03
2018-11-25T04:37:09.295Z,13.03
2018-11-25T04:39:37.390Z,8.90
2018-11-25T04:42:05.699Z,8.60
2018-11-25T04:44:33.846Z,10.00
2018-11-25T04:47:02.179Z,9.73
2018-11-25T04:49:30.304Z,9.70
2018-11-25T04:51:58.940Z,10.27
2018-11-25T04:54:27.059Z,8.60
2018-11-25T04:56:55.197Z,11.10
2018-11-25T04:59:23.524Z,9.20
2018-11-25T05:01:51.631Z,8.23
2018-11-25T05:04:19.727Z,8.53
2018-11-25T05:06:47.819Z,7.63
2018-11-25T05:09:15.936Z,10.17
2018-11-25T05:11:44.595Z,8.97
2018-11-25T05:14:12.711Z,12.47
2018-11-25T05:16:40.820Z,8.67
2018-11-25T05:19:08.921Z,10.80
2018-11-25T05:21:37.043Z,14.50
2018-11-25T05:24:05.792Z,12.57
2018-11-25T05:26:33.912Z,13.10
2018-11-25T05:29:02.015Z,9.47
2018-11-25T05:31:30.170Z,12.40
2018-11-25T05:33:58.382Z,11.00
2018-11-25T05:36:26.777Z,10.07
2018-11-25T05:38:54.850Z,10.47
2018-11-25T05:41:22.999Z,9.93
2018-11-25T05:43:51.152Z,10.97
2018-11-25T05:46:19.279Z,11.13
2018-11-25T05:48:47.630Z,10.07
2018-11-25T05:51:15.720Z,10.67
2018-11-25T05:53:43.856Z,9.57
2018-11-25T05:56:11.953Z,9.93
2018-11-25T05:58:40.052Z,11.13
2018-11-25T06:01:08.468Z,10.30
2018-11-25T06:03:36.572Z,10.03
2018-11-25T06:06:04.795Z,10.03
2018-11-25T06:08:33.108Z,13.03
2018-11-25T06:11:01.249Z,11.57
2018-11-25T06:13:29.583Z,11.93
2018-11-25T06:15:57.668Z,11.57
2018-11-25T06:18:25.799Z,10.50
2018-11-25T06:20:53.899Z,10.97
2018-11-25T06:23:21.975Z,15.00
2018-11-25T06:25:50.316Z,12.43
2018-11-25T06:28:18.440Z,10.10
2018-11-25T06:30:46.551Z,10.00
2018-11-25T06:33:14.668Z,11.50
2018-11-25T06:35:42.759Z,11.87
2018-11-25T06:38:10.866Z,12.57
2018-11-25T06:40:38.956Z,11.10
2018-11-25T06:43:07.055Z,9.63
2018-11-25T06:45:35.171Z,10.20
2018-11-25T06:48:03.238Z,8.60
2018-11-25T06:50:31.371Z,11.67
2018-11-25T06:52:59.471Z,11.10
2018-11-25T06:55:27.559Z,11.77
2018-11-25T06:57:55.699Z,10.53
2018-11-25T07:00:24.660Z,10.33
2018-11-25T07:02:52.839Z,9.33
2018-11-25T07:05:21.013Z,11.47
2018-11-25T07:07:49.182Z,12.00
2018-11-25T07:10:20.060Z,10.87
2018-11-25T07:12:50.178Z,7.53
2018-11-25T07:15:18.531Z,9.73
2018-11-25T07:17:46.703Z,11.30
2018-11-25T07:20:18.563Z,10.37
2018-11-25T07:22:46.660Z,8.77
2018-11-25T07:25:16.531Z,11.63
2018-11-25T07:27:44.620Z,9.73
2018-11-25T07:30:17.688Z,12.53
2018-11-25T07:32:45.808Z,12.63
2018-11-25T07:35:13.900Z,8.87
2018-11-25T07:37:42.031Z,12.00
2018-11-25T07:40:12.323Z,8.23
2018-11-25T07:42:40.506Z,11.40
2018-11-25T07:45:10.740Z,10.27
2018-11-25T07:47:38.855Z,9.97
2018-11-25T07:50:09.346Z,12.00
2018-11-25T07:52:37.493Z,9.60
2018-11-25T07:55:14.243Z,9.90
2018-11-25T07:57:42.461Z,12.30
2018-11-25T08:00:18.500Z,12.83
2018-11-25T08:02:46.561Z,9.20
2018-11-25T08:05:17.689Z,11.17
2018-11-25T08:07:45.758Z,9.67
2018-11-25T08:10:14.920Z,8.57
2018-11-25T08:12:43.289Z,8.40
2018-11-25T08:15:13.396Z,10.13
2018-11-25T08:17:41.471Z,9.33
2018-11-25T08:20:11.552Z,8.13
2018-11-25T08:22:39.683Z,10.47
2018-11-25T08:25:11.831Z,7.57
2018-11-25T08:27:39.902Z,10.17
2018-11-25T08:30:14.711Z,9.10
2018-11-25T08:32:42.822Z,8.57
2018-11-25T08:35:11.347Z,9.60
2018-11-25T08:37:39.412Z,9.53
2018-11-25T08:40:18.385Z,10.00
2018-11-25T08:42:46.532Z,9.67
2018-11-25T08:45:14.995Z,11.33
2018-11-25T08:47:43.349Z,8.07
2018-11-25T08:50:13.357Z,9.03
2018-11-25T08:52:41.953Z,10.30
2018-11-25T08:55:12.128Z,9.00
2018-11-25T08:57:40.259Z,10.27
2018-11-25T09:00:10.371Z,9.07
2018-11-25T09:02:38.479Z,7.60
2018-11-25T09:05:07.545Z,8.03
2018-11-25T09:07:35.649Z,10.03
2018-11-25T09:10:04.413Z,8.93
2018-11-25T09:12:32.523Z,8.67
2018-11-25T09:15:00.691Z,9.23
2018-11-25T09:17:28.776Z,11.17
2018-11-25T09:19:56.931Z,9.80
2018-11-25T09:22:25.006Z,11.57
2018-11-25T09:24:53.127Z,7.23
2018-11-25T09:27:21.291Z,10.50
2018-11-25T09:29:49.412Z,8.03
2018-11-25T09:32:22.879Z,7.83
2018-11-25T09:34:45.567Z,9.20
2018-11-25T09:37:13.627Z,8.67
2018-11-25T09:39:41.728Z,7.77
2018-11-25T09:42:09.827Z,9.87
2018-11-25T09:44:37.915Z,9.93
2018-11-25T09:47:06.082Z,8.20
2018-11-25T09:49:34.161Z,8.23
2018-11-25T09:52:02.275Z,9.07
2018-11-25T09:54:30.379Z,9.50
2018-11-25T09:56:58.703Z,10.10
2018-11-25T09:59:26.788Z,13.07
2018-11-25T10:01:54.959Z,7.57
2018-11-25T10:04:23.091Z,9.20
2018-11-25T10:06:51.158Z,10.80
2018-11-25T10:09:19.259Z,9.37
2018-11-25T10:11:47.462Z,11.03
2018-11-25T10:14:15.864Z,10.00
2018-11-25T10:16:44.000Z,10.20
2018-11-25T10:19:12.125Z,9.80
2018-11-25T10:21:40.463Z,11.17
2018-11-25T10:24:08.578Z,17.30
2018-11-25T10:26:36.693Z,14.60
2018-11-25T10:29:04.776Z,17.80
2018-11-25T10:31:32.872Z,12.23
2018-11-25T10:34:01.213Z,11.40
2018-11-25T10:36:29.327Z,14.60
2018-11-25T10:38:57.460Z,10.10
2018-11-25T10:41:25.581Z,11.77
2018-11-25T10:43:53.656Z,11.53
2018-11-25T10:46:21.803Z,12.53
2018-11-25T10:48:49.923Z,14.70
2018-11-25T10:51:18.005Z,14.90
2018-11-25T10:53:46.096Z,15.43
2018-11-25T10:56:14.183Z,12.73
2018-11-25T10:58:42.286Z,12.43
2018-11-25T11:01:15.978Z,19.13
2018-11-25T11:03:49.614Z,11.80
2018-11-25T11:06:23.097Z,15.67
2018-11-25T11:08:51.322Z,12.33
2018-11-25T11:11:19.471Z,12.43
2018-11-25T11:13:47.932Z,12.80
2018-11-25T11:16:16.176Z,11.27
2018-11-25T11:18:44.284Z,10.33
2018-11-25T11:21:12.409Z,14.13
2018-11-25T11:23:40.514Z,10.57
2018-11-25T11:26:30.928Z,11.50
2018-11-25T11:29:07.171Z,12.23
2018-11-25T11:31:38.107Z,10.73
2018-11-25T11:34:06.288Z,9.10
2018-11-25T11:37:09.145Z,10.53
2018-11-25T11:39:42.621Z,16.57
2018-11-25T11:42:11.033Z,13.10
2018-11-25T11:44:40.356Z,12.90
2018-11-25T11:47:08.800Z,9.40
2018-11-25T11:49:38.328Z,10.53
2018-11-25T11:52:06.812Z,10.93
2018-11-25T11:54:34.908Z,9.10
2018-11-25T11:57:03.088Z,11.30
2018-11-25T11:59:31.224Z,12.03
2018-11-25T12:01:59.380Z,12.57
2018-11-25T12:04:27.478Z,10.87
2018-11-25T12:06:55.608Z,11.43
2018-11-25T12:09:23.728Z,11.03
2018-11-25T12:11:51.860Z,16.10
2018-11-25T12:14:20.094Z,11.87
2018-11-25T12:16:48.264Z,12.97
2018-11-25T12:19:16.389Z,10.37
2018-11-25T12:21:44.631Z,13.30
2018-11-25T12:24:12.739Z,12.67
2018-11-25T12:26:41.864Z,9.97
2018-11-25T12:29:09.997Z,14.23
2018-11-25T12:31:38.177Z,8.80
2018-11-25T12:34:06.300Z,13.77
2018-11-25T12:36:34.434Z,11.30
2018-11-25T12:39:02.524Z,13.07
2018-11-25T12:41:30.680Z,13.60
2018-11-25T12:43:58.923Z,16.23
2018-11-25T12:46:27.089Z,15.13
2018-11-25T12:48:55.188Z,13.77
2018-11-25T12:51:23.384Z,13.03
2018-11-25T12:53:51.583Z,18.73
2018-11-25T12:56:19.882Z,13.20
2018-11-25T12:58:48.024Z,19.47
2018-11-25T13:01:16.159Z,15.73
2018-11-25T13:03:44.316Z,16.63
2018-11-25T13:06:12.408Z,17.50
2018-11-25T13:08:40.784Z,15.80
2018-11-25T13:11:08.891Z,13.87
2018-11-25T13:13:37.056Z,13.73
2018-11-25T13:16:05.214Z,16.47
2018-11-25T13:18:33.457Z,15.70
2018-11-25T13:21:01.689Z,18.53
2018-11-25T13:23:30.164Z,16.90
2018-11-25T13:25:58.419Z,15.23
2018-11-25T13:28:26.563Z,13.47
2018-11-25T13:30:54.643Z,13.43
2018-11-25T13:33:22.735Z,10.93
2018-11-25T13:35:50.892Z,13.10
2018-11-25T13:38:19.037Z,14.87
2018-11-25T13:40:47.155Z,16.53
2018-11-25T13:43:15.328Z,15.37
2018-11-25T13:45:43.445Z,13.47
2018-11-25T13:48:11.524Z,18.47
2018-11-25T13:50:39.599Z,15.87
2018-11-25T13:53:07.703Z,14.87
2018-11-25T13:55:37.520Z,12.53
2018-11-25T13:58:05.828Z,16.73
2018-11-25T14:00:42.288Z,18.23
2018-11-25T14:03:13.570Z,13.00
2018-11-25T14:05:41.765Z,14.10
2018-11-25T14:08:09.917Z,11.13
2018-11-25T14:10:38.159Z,13.00
2018-11-25T14:13:06.488Z,12.57
2018-11-25T14:15:35.270Z,11.83
2018-11-25T14:18:03.423Z,15.47
2018-11-25T14:20:31.675Z,15.60
2018-11-25T14:22:59.799Z,14.03
2018-11-25T14:25:28.055Z,17.80
2018-11-25T14:27:58.328Z,20.00
2018-11-25T14:30:27.977Z,15.37
2018-11-25T14:32:56.045Z,13.73
2018-11-25T14:35:24.212Z,17.70
2018-11-25T14:37:52.325Z,18.27
2018-11-25T14:40:20.511Z,15.17
2018-11-25T14:42:48.671Z,14.83
2018-11-25T14:45:17.665Z,14.43
2018-11-25T14:47:45.825Z,15.07
2018-11-25T14:50:16.120Z,14.50
2018-11-25T14:52:45.391Z,14.70
2018-11-25T14:55:14.252Z,20.07
2018-11-25T14:57:42.360Z,18.63
2018-11-25T15:00:26.938Z,12.53
2018-11-25T15:02:56.723Z,15.37
2018-11-25T15:05:27.506Z,14.40
2018-11-25T15:07:55.617Z,13.57
2018-11-25T15:10:23.722Z,14.03
2018-11-25T15:12:51.896Z,13.33
2018-11-25T15:15:20.035Z,11.13
2018-11-25T15:17:48.202Z,15.67
2018-11-25T15:20:16.682Z,14.00
2018-11-25T15:22:46.314Z,15.70
2018-11-25T15:25:18.491Z,18.10
2018-11-25T15:27:46.589Z,14.97
2018-11-25T15:30:14.756Z,17.23
2018-11-25T15:32:43.186Z,12.77
2018-11-25T15:35:12.367Z,15.60
2018-11-25T15:37:42.329Z,13.37
2018-11-25T15:40:16.108Z,12.60
2018-11-25T15:42:44.223Z,15.40
2018-11-25T15:45:12.396Z,15.90
2018-11-25T15:47:42.231Z,14.10
2018-11-25T15:50:12.208Z,14.27
2018-11-25T15:52:40.317Z,14.90
2018-11-25T15:55:11.085Z,16.37
2018-11-25T15:57:40.150Z,14.40
2018-11-25T16:00:12.858Z,12.43
2018-11-25T16:02:41.192Z,14.90
2018-11-25T16:05:13.101Z,14.63
2018-11-25T16:07:41.238Z,11.03
2018-11-25T16:10:11.527Z,13.23
2018-11-25T16:12:40.184Z,13.97
2018-11-25T16:15:10.063Z,11.73
2018-11-25T16:17:38.276Z,14.57
2018-11-25T16:20:10.067Z,17.03
2018-11-25T16:22:38.200Z,12.57
2018-11-25T16:25:10.060Z,15.93
2018-11-25T16:27:38.203Z,19.00
2018-11-25T16:30:08.960Z,18.07
2018-11-25T16:32:38.060Z,19.20
2018-11-25T16:35:07.913Z,22.67
2018-11-25T16:37:36.090Z,19.07
2018-11-25T16:40:06.972Z,18.27
2018-11-25T16:42:35.088Z,22.67
2018-11-25T16:45:03.397Z,19.10
2018-11-25T16:47:31.780Z,22.93
2018-11-25T16:49:59.958Z,20.47
2018-11-25T16:52:28.192Z,18.33
2018-11-25T16:54:56.356Z,19.77
2018-11-25T16:57:24.532Z,17.57
2018-11-25T16:59:52.743Z,20.63
2018-11-25T17:02:20.954Z,22.10
2018-11-25T17:04:49.185Z,17.67
2018-11-25T17:07:18.779Z,23.43
2018-11-25T17:09:46.967Z,19.37
2018-11-25T17:12:15.112Z,23.07
2018-11-25T17:14:43.265Z,25.67
2018-11-25T17:17:11.799Z,21.17
2018-11-25T17:19:39.989Z,21.47
2018-11-25T17:22:08.096Z,23.67
2018-11-25T17:24:36.508Z,21.83
2018-11-25T17:27:04.740Z,22.20
2018-11-25T17:29:32.875Z,22.17
2018-11-25T17:32:01.087Z,23.40
2018-11-25T17:34:29.296Z,19.57
2018-11-25T17:36:57.479Z,27.23
2018-11-25T17:39:25.632Z,20.73
2018-11-25T17:41:53.868Z,24.27
2018-11-25T17:44:22.252Z,25.70
2018-11-25T17:46:51.568Z,22.43
2018-11-25T17:49:20.888Z,20.70
2018-11-25T17:51:49.060Z,27.47
2018-11-25T17:54:17.199Z,35.90
2018-11-25T17:56:45.348Z,53.80
2018-11-25T17:59:13.444Z,53.80
2018-11-25T18:01:41.809Z,56.87
2018-11-25T18:04:09.943Z,66.90
2018-11-25T18:06:38.192Z,64.77
2018-11-25T18:09:09.634Z,68.70
2018-11-25T18:11:37.879Z,67.97
2018-11-25T18:14:07.536Z,66.30
2018-11-25T18:16:35.892Z,62.03
2018-11-25T18:19:27.200Z,69.60
2018-11-25T18:22:02.169Z,68.13
2018-11-25T18:24:30.288Z,61.33
2018-11-25T18:27:00.384Z,66.23
2018-11-25T18:29:30.274Z,65.07
2018-11-25T18:31:58.956Z,60.03
2018-11-25T18:34:27.130Z,65.10
2018-11-25T18:36:55.249Z,59.87
2018-11-25T18:39:23.431Z,57.63
2018-11-25T18:41:52.232Z,52.10
2018-11-25T18:44:20.413Z,61.00
2018-11-25T18:46:49.135Z,53.00
2018-11-25T18:49:20.877Z,56.23
2018-11-25T18:51:49.005Z,59.10
2018-11-25T18:54:17.842Z,56.87
2018-11-25T18:56:45.984Z,52.50
2018-11-25T18:59:14.564Z,53.23
2018-11-25T19:01:53.515Z,52.23
2018-11-25T19:04:21.945Z,53.73
2018-11-25T19:06:52.365Z,51.07
2018-11-25T19:09:21.087Z,50.43
2018-11-25T19:11:49.357Z,52.00
2018-11-25T19:14:18.108Z,44.30
2018-11-25T19:16:51.109Z,50.23
2018-11-25T19:19:22.248Z,45.17
2018-11-25T19:21:52.417Z,43.27
2018-11-25T19:24:26.532Z,42.87
2018-11-25T19:26:55.310Z,47.27
2018-11-25T19:29:26.021Z,47.77
2018-11-25T19:31:55.999Z,39.87
2018-11-25T19:34:27.657Z,49.23
2018-11-25T19:36:56.288Z,44.80
2018-11-25T19:39:26.265Z,43.53
2018-11-25T19:41:54.667Z,39.63
2018-11-25T19:44:23.364Z,41.57
2018-11-25T19:46:51.508Z,48.73
2018-11-25T19:49:19.746Z,47.53
2018-11-25T19:51:48.127Z,56.63
2018-11-25T19:54:16.564Z,54.60
2018-11-25T19:56:45.174Z,58.50
2018-11-25T19:59:15.022Z,62.07
2018-11-25T20:19:20.846Z,65.70
2018-11-25T20:56:28.178Z,50.93
2018-11-25T20:58:57.297Z,52.67
2018-11-25T21:01:30.591Z,47.90
2018-11-25T21:04:16.720Z,43.70
2018-11-25T21:06:51.194Z,45.87
2018-11-25T21:09:21.955Z,44.93
2018-11-25T21:25:28.887Z,42.17
2018-11-25T21:27:57.415Z,41.97
2018-11-25T21:34:05.639Z,38.33
2018-11-25T21:37:04.493Z,40.87
2018-11-25T21:39:33.463Z,38.07
2018-11-25T21:52:34.402Z,41.77
2018-11-25T21:55:17.670Z,37.70
2018-11-25T21:57:46.069Z,33.17
2018-11-25T22:00:19.990Z,36.30
2018-11-25T22:13:43.769Z,36.03
2018-11-25T22:30:31.942Z,28.60
2018-11-25T22:33:03.488Z,26.50
2018-11-25T23:03:34.796Z,28.50
2018-11-25T23:07:17.060Z,25.57
2018-11-25T23:14:05.827Z,27.23
2018-11-25T23:16:34.316Z,21.97
2018-11-25T23:19:02.802Z,23.07
2018-11-25T23:24:13.361Z,23.60
2018-11-25T23:26:58.347Z,26.67
2018-11-25T23:29:28.128Z,24.27
2018-11-25T23:31:56.239Z,22.30
2018-11-25T23:34:24.404Z,21.67
2018-11-25T23:36:52.560Z,21.00
2018-11-25T23:39:20.686Z,28.03
2018-11-25T23:41:48.899Z,25.20
2018-11-25T23:44:17.243Z,23.70
2018-11-25T23:46:46.245Z,21.87
2018-11-25T23:49:14.358Z,19.13
2018-11-25T23:51:42.499Z,20.87
2018-11-25T23:54:10.669Z,17.00
2018-11-25T23:56:38.755Z,22.20
2018-11-25T23:59:06.903Z,21.53
